Time;durP1;ratioP1;P1;durP2;ratioP2;P2;SDS_P1;SDS_P2;PMS_P1;PMS_P2;Temp;Humidity;BMP_temperature;BMP_pressure;BME280_temperature;BME280_humidity;BME280_pressure;Samples;Min_cycle;Max_cycle;Signal;HPM_P1;HPM_P2
2022/03/08 00:01:58;;;;;;;7.47;5.87;;;3.50;1.60;;;;;;2610475;47;20447;-77
2022/03/08 00:04:25;;;;;;;10.43;6.50;;;3.60;1.50;;;;;;2612015;54;21283;-76
2022/03/08 00:06:51;;;;;;;7.93;6.50;;;3.60;1.50;;;;;;2613579;31;20669;-76
2022/03/08 00:09:17;;;;;;;6.23;5.57;;;3.60;1.90;;;;;;2614740;39;20922;-75
2022/03/08 00:11:43;;;;;;;9.63;6.50;;;3.40;1.90;;;;;;2610384;54;20378;-75
2022/03/08 00:14:10;;;;;;;6.80;6.20;;;3.50;2.20;;;;;;2610169;51;20274;-76
2022/03/08 00:16:37;;;;;;;12.27;6.60;;;3.50;1.90;;;;;;2609982;54;20472;-76
2022/03/08 00:19:05;;;;;;;7.20;6.50;;;3.50;2.00;;;;;;2610390;54;20398;-75
2022/03/08 00:21:31;;;;;;;7.23;6.50;;;3.50;2.00;;;;;;2613022;54;20507;-76
2022/03/08 00:23:57;;;;;;;7.63;6.93;;;3.50;2.50;;;;;;2609623;54;20449;-75
2022/03/08 00:26:23;;;;;;;11.30;6.60;;;3.30;2.30;;;;;;2610156;54;20394;-73
2022/03/08 00:28:50;;;;;;;6.70;5.97;;;3.30;2.70;;;;;;2610716;54;20383;-75
2022/03/08 00:31:16;;;;;;;6.13;5.57;;;3.30;2.70;;;;;;2611558;54;20436;-75
2022/03/08 00:33:45;;;;;;;5.53;5.13;;;3.10;3.40;;;;;;2612455;54;20154;-75
2022/03/08 00:36:11;;;;;;;6.43;5.83;;;2.80;4.50;;;;;;2611416;54;21113;-75
2022/03/08 00:38:37;;;;;;;6.67;6.03;;;3.20;3.40;;;;;;2610280;54;20491;-75
2022/03/08 00:41:04;;;;;;;9.43;6.27;;;3.20;3.90;;;;;;2610983;39;20846;-75
2022/03/08 00:43:30;;;;;;;8.03;6.40;;;3.20;3.90;;;;;;2610104;47;20538;-74
2022/03/08 00:45:56;;;;;;;7.13;6.43;;;3.10;4.60;;;;;;2612560;54;20491;-74
2022/03/08 00:48:22;;;;;;;7.63;6.93;;;2.90;5.20;;;;;;2612964;54;20963;-76
2022/03/08 00:50:50;;;;;;;8.40;7.03;;;2.80;5.20;;;;;;2615259;47;20428;-73
2022/03/08 00:53:17;;;;;;;6.23;5.67;;;2.70;5.90;;;;;;2615486;47;20175;-75
2022/03/08 00:55:43;;;;;;;6.93;6.23;;;2.70;6.20;;;;;;2612568;54;20411;-74
2022/03/08 00:58:09;;;;;;;11.00;6.97;;;2.70;6.60;;;;;;2610907;54;20453;-76
2022/03/08 01:00:37;;;;;;;7.00;6.30;;;2.60;7.10;;;;;;2611049;47;20419;-78
2022/03/08 01:03:04;;;;;;;7.50;6.40;;;2.60;6.80;;;;;;2609169;54;20430;-75
2022/03/08 01:05:31;;;;;;;9.33;6.53;;;2.60;7.20;;;;;;2611934;54;20533;-75
2022/03/08 01:07:59;;;;;;;7.33;6.63;;;2.60;7.60;;;;;;2610332;54;20502;-76
2022/03/08 01:10:27;;;;;;;8.60;6.60;;;2.50;7.70;;;;;;2610758;47;20443;-77
2022/03/08 01:12:54;;;;;;;7.67;6.63;;;2.60;7.80;;;;;;2613985;54;20963;-74
2022/03/08 01:15:21;;;;;;;7.47;6.20;;;2.60;8.20;;;;;;2615026;54;20429;-76
2022/03/08 01:17:47;;;;;;;8.67;7.20;;;2.40;8.80;;;;;;2612615;47;20427;-74
2022/03/08 01:20:14;;;;;;;11.83;7.00;;;2.50;8.80;;;;;;2614338;47;20418;-74
2022/03/08 01:22:41;;;;;;;7.03;6.23;;;2.40;9.20;;;;;;2614419;47;20427;-74
2022/03/08 01:25:12;;;;;;;7.00;6.30;;;2.30;9.90;;;;;;2614804;54;20400;-76
2022/03/08 01:27:39;;;;;;;8.30;7.50;;;2.20;10.00;;;;;;2613271;47;20966;-75
2022/03/08 01:30:08;;;;;;;8.60;6.73;;;2.30;9.90;;;;;;2612939;54;20502;-74
2022/03/08 01:32:36;;;;;;;11.30;6.70;;;2.30;10.50;;;;;;2613471;47;20432;-76
2022/03/08 01:35:03;;;;;;;7.33;6.63;;;2.20;11.40;;;;;;2611414;46;20438;-77
2022/03/08 01:37:29;;;;;;;8.13;6.80;;;2.10;12.00;;;;;;2611600;39;20808;-77
2022/03/08 01:39:55;;;;;;;9.70;6.53;;;2.10;12.50;;;;;;2611246;54;20473;-74
2022/03/08 01:42:23;;;;;;;8.90;7.60;;;2.00;12.80;;;;;;2613268;54;20943;-75
2022/03/08 01:44:50;;;;;;;7.40;6.60;;;1.80;14.00;;;;;;2611398;54;20426;-75
2022/03/08 01:47:43;;;;;;;7.97;6.63;;;1.70;15.30;;;;;;2613059;39;22445;-74
2022/03/08 01:50:10;;;;;;;9.40;7.10;;;1.70;15.70;;;;;;2611267;47;20419;-73
2022/03/08 01:52:38;;;;;;;7.70;6.70;;;1.60;15.60;;;;;;2612696;54;20435;-75
2022/03/08 01:55:05;;;;;;;8.07;7.20;;;1.70;16.20;;;;;;2610929;54;20412;-74
2022/03/08 01:57:31;;;;;;;11.07;7.27;;;1.60;16.90;;;;;;2611433;39;20946;-74
2022/03/08 01:59:57;;;;;;;10.20;7.30;;;1.50;17.80;;;;;;2610718;47;20414;-75
2022/03/08 02:02:26;;;;;;;9.30;6.60;;;1.40;18.80;;;;;;2612566;47;20173;-75
2022/03/08 02:04:52;;;;;;;12.47;8.27;;;1.30;18.70;;;;;;2613633;47;20266;-75
2022/03/08 02:07:18;;;;;;;10.20;6.67;;;1.10;22.20;;;;;;2612222;47;20414;-75
2022/03/08 02:09:44;;;;;;;10.87;7.43;;;1.10;22.50;;;;;;2611168;47;20435;-75
2022/03/08 02:12:10;;;;;;;16.40;7.50;;;0.90;25.00;;;;;;2610233;47;20466;-75
2022/03/08 02:14:37;;;;;;;12.27;6.70;;;0.80;27.10;;;;;;2612128;54;20155;-74
2022/03/08 02:17:04;;;;;;;7.17;6.47;;;0.70;28.50;;;;;;2611743;54;20408;-74
2022/03/08 02:19:30;;;;;;;11.50;7.20;;;0.60;29.10;;;;;;2614177;46;20407;-75
2022/03/08 02:22:22;;;;;;;8.00;6.20;;;0.60;31.20;;;;;;2611426;39;20846;-75
2022/03/08 02:24:49;;;;;;;9.40;7.13;;;0.70;32.30;;;;;;2611920;54;20151;-74
2022/03/08 02:27:15;;;;;;;7.43;6.70;;;0.50;35.30;;;;;;2614004;47;20456;-75
2022/03/08 02:29:41;;;;;;;10.10;7.60;;;0.40;37.30;;;;;;2611793;47;20482;-74
2022/03/08 02:32:07;;;;;;;8.43;7.53;;;0.50;39.00;;;;;;2613241;39;20618;-75
2022/03/08 02:34:33;;;;;;;9.40;7.13;;;0.30;43.10;;;;;;2613616;39;20863;-74
2022/03/08 02:37:07;;;;;;;9.63;7.07;;;0.40;45.90;;;;;;2614370;47;20419;-75
2022/03/08 02:39:35;;;;;;;11.13;7.50;;;0.30;47.90;;;;;;2616138;47;20174;-74
2022/03/08 02:42:02;;;;;;;9.90;6.90;;;0.20;49.40;;;;;;2615730;54;20386;-75
2022/03/08 02:44:29;;;;;;;13.13;7.37;;;0.20;50.00;;;;;;2613021;46;20474;-74
2022/03/08 02:46:55;;;;;;;10.03;7.67;;;0.20;51.10;;;;;;2612674;47;20427;-74
2022/03/08 02:49:47;;;;;;;9.17;7.43;;;0.20;52.30;;;;;;2612975;54;20446;-74
2022/03/08 02:52:13;;;;;;;8.90;6.30;;;0.20;53.10;;;;;;2612999;54;20522;-74
2022/03/08 02:54:39;;;;;;;10.10;7.30;;;0.20;53.20;;;;;;2614058;54;20466;-74
2022/03/08 02:57:04;;;;;;;12.60;7.23;;;0.20;53.40;;;;;;2614329;54;20909;-76
2022/03/08 02:59:31;;;;;;;15.50;8.13;;;0.20;53.50;;;;;;2612798;47;20460;-76
2022/03/08 03:01:57;;;;;;;11.77;8.47;;;0.20;56.00;;;;;;2611420;46;20213;-75
2022/03/08 03:04:23;;;;;;;9.50;7.97;;;0.10;56.90;;;;;;2614214;54;20431;-73
2022/03/08 03:06:49;;;;;;;14.80;6.93;;;0.60;75.10;;;;;;2615049;39;20849;-73
2022/03/08 03:09:41;;;;;;;11.27;6.47;;;0.10;60.80;;;;;;2616543;47;20273;-75
2022/03/08 03:12:08;;;;;;;12.60;7.67;;;0.10;62.60;;;;;;2613422;47;20155;-75
2022/03/08 03:14:34;;;;;;;12.50;8.23;;;0.10;62.60;;;;;;2613493;54;20407;-76
2022/03/08 03:17:00;;;;;;;9.50;7.60;;;0.10;62.30;;;;;;2612471;47;20434;-73
2022/03/08 03:19:26;;;;;;;9.67;7.67;;;0.10;62.60;;;;;;2614129;47;20953;-76
2022/03/08 03:21:52;;;;;;;12.87;7.73;;;0.00;64.20;;;;;;2615741;54;20697;-75
2022/03/08 03:24:17;;;;;;;9.63;7.70;;;0.10;62.20;;;;;;2614121;54;20424;-75
2022/03/08 03:26:45;;;;;;;11.67;7.20;;;0.10;60.40;;;;;;2613616;54;20427;-74
2022/03/08 03:29:11;;;;;;;8.17;7.27;;;0.10;58.90;;;;;;2614666;54;20974;-75
2022/03/08 03:31:37;;;;;;;11.40;8.07;;;0.10;58.50;;;;;;2613833;54;20426;-76
2022/03/08 03:34:03;;;;;;;9.03;7.80;;;0.00;58.80;;;;;;2614535;47;20410;-74
2022/03/08 03:36:29;;;;;;;11.30;7.50;;;-0.10;62.40;;;;;;2615450;54;21035;-75
2022/03/08 03:39:22;;;;;;;7.00;6.20;;;-0.10;63.70;;;;;;2616677;54;20403;-75
2022/03/08 03:41:48;;;;;;;9.53;7.60;;;-0.10;63.50;;;;;;2615400;54;20225;-74
2022/03/08 03:44:15;;;;;;;9.47;7.53;;;-0.10;63.70;;;;;;2615067;39;20954;-74
2022/03/08 03:47:13;;;;;;;9.30;7.67;;;-0.10;64.80;;;;;;2614587;47;20687;-75
2022/03/08 03:49:40;;;;;;;11.00;8.10;;;-0.20;67.20;;;;;;2616681;54;20482;-76
2022/03/08 03:52:06;;;;;;;12.80;8.57;;;-0.20;67.60;;;;;;2613364;39;20776;-75
2022/03/08 03:54:34;;;;;;;11.17;8.70;;;-0.10;69.60;;;;;;2614636;51;20972;-74
2022/03/08 03:57:01;;;;;;;9.60;8.30;;;-0.10;69.00;;;;;;2616205;47;20407;-75
2022/03/08 03:59:27;;;;;;;12.20;9.07;;;-0.10;71.00;;;;;;2613624;54;20517;-75
2022/03/08 04:01:53;;;;;;;11.47;7.00;;;-0.10;67.40;;;;;;2611745;54;20419;-75
2022/03/08 04:04:19;;;;;;;9.37;7.10;;;-0.10;68.80;;;;;;2616699;47;20762;-75
2022/03/08 04:06:45;;;;;;;12.80;8.40;;;-0.10;69.80;;;;;;2613888;54;20403;-74
2022/03/08 04:09:10;;;;;;;11.40;9.37;;;-0.10;69.80;;;;;;2617346;47;20323;-75
2022/03/08 04:11:36;;;;;;;9.73;8.27;;;0.00;67.60;;;;;;2614703;54;20143;-75
2022/03/08 04:14:02;;;;;;;10.33;8.83;;;-0.20;67.00;;;;;;2616455;47;20253;-75
2022/03/08 04:16:30;;;;;;;10.23;8.10;;;-0.20;67.90;;;;;;2611944;54;21899;-75
2022/03/08 04:18:56;;;;;;;10.70;8.80;;;-0.10;68.30;;;;;;2616724;46;20407;-74
2022/03/08 04:21:22;;;;;;;12.60;8.30;;;-0.20;70.20;;;;;;2614823;54;20400;-75
2022/03/08 04:24:15;;;;;;;11.40;8.80;;;-1.30;74.10;;;;;;2616040;47;20166;-74
2022/03/08 04:26:41;;;;;;;15.50;7.87;;;-0.20;72.90;;;;;;2616263;47;20422;-74
2022/03/08 04:29:07;;;;;;;10.30;7.60;;;-0.30;76.10;;;;;;2617455;47;20503;-74
2022/03/08 04:31:33;;;;;;;12.83;8.37;;;-0.30;77.40;;;;;;2613607;54;20407;-75
2022/03/08 04:33:59;;;;;;;12.57;9.43;;;-0.40;80.60;;;;;;2615135;54;20395;-75
2022/03/08 04:36:25;;;;;;;10.57;9.00;;;-0.40;82.10;;;;;;2613591;54;20170;-75
2022/03/08 04:38:51;;;;;;;11.80;8.27;;;-0.30;82.40;;;;;;2611577;54;20424;-76
2022/03/08 04:41:16;;;;;;;11.93;8.23;;;-0.30;83.70;;;;;;2615008;51;20155;-75
2022/03/08 04:43:46;;;;;;;13.67;8.10;;;-0.40;82.80;;;;;;2615786;54;20242;-75
2022/03/08 04:46:12;;;;;;;10.03;8.27;;;-0.30;82.10;;;;;;2614504;54;20417;-75
2022/03/08 04:48:37;;;;;;;15.83;9.23;;;-0.40;84.80;;;;;;2615516;54;20404;-75
2022/03/08 04:51:04;;;;;;;13.27;8.40;;;-0.50;85.60;;;;;;2613983;54;20683;-80
2022/03/08 04:53:32;;;;;;;11.63;8.13;;;-0.40;87.60;;;;;;2614476;46;20433;-77
2022/03/08 04:55:57;;;;;;;16.07;10.07;;;-0.50;89.70;;;;;;2613727;47;20402;-75
2022/03/08 04:58:23;;;;;;;12.43;8.30;;;-0.40;90.00;;;;;;2615662;47;20415;-76
2022/03/08 05:00:50;;;;;;;11.60;9.87;;;-0.30;88.60;;;;;;2614881;54;20159;-75
2022/03/08 05:03:16;;;;;;;20.03;9.40;;;-0.30;88.50;;;;;;2612660;54;20474;-75
2022/03/08 05:05:41;;;;;;;11.23;8.27;;;-0.30;87.80;;;;;;2614774;54;20959;-76
2022/03/08 05:08:07;;;;;;;11.23;8.33;;;-0.40;91.20;;;;;;2615546;54;20178;-76
2022/03/08 05:10:33;;;;;;;15.93;10.27;;;-0.40;91.80;;;;;;2615138;54;20174;-76
2022/03/08 05:13:03;;;;;;;16.73;9.47;;;-0.50;91.90;;;;;;2612782;54;20151;-77
2022/03/08 05:15:29;;;;;;;12.83;8.73;;;-0.50;92.10;;;;;;2614862;54;20950;-76
2022/03/08 05:17:55;;;;;;;15.93;9.13;;;-0.50;92.00;;;;;;2615388;54;20426;-75
2022/03/08 05:20:21;;;;;;;12.00;9.47;;;-0.50;91.60;;;;;;2615145;47;20927;-75
2022/03/08 05:22:47;;;;;;;14.20;9.50;;;-0.50;92.00;;;;;;2615752;54;20478;-74
2022/03/08 05:25:13;;;;;;;16.70;10.17;;;-0.50;92.20;;;;;;2615151;47;21159;-76
2022/03/08 05:27:40;;;;;;;16.13;10.27;;;-0.40;92.20;;;;;;2615512;47;20415;-74
2022/03/08 05:30:07;;;;;;;18.50;8.53;;;-0.30;90.50;;;;;;2616685;51;20416;-76
2022/03/08 05:32:33;;;;;;;14.87;9.10;;;-0.40;90.10;;;;;;2613504;54;20404;-75
2022/03/08 05:35:00;;;;;;;11.27;8.93;;;-0.50;90.00;;;;;;2613709;54;20538;-75
2022/03/08 05:37:25;;;;;;;9.90;7.83;;;-0.40;90.00;;;;;;2615387;47;20427;-75
2022/03/08 05:39:52;;;;;;;14.17;9.40;;;-0.40;90.60;;;;;;2616303;47;20968;-75
2022/03/08 05:42:18;;;;;;;12.50;8.47;;;-0.40;91.20;;;;;;2616768;54;20411;-76
2022/03/08 05:44:44;;;;;;;15.67;9.73;;;-0.40;91.70;;;;;;2616794;54;20162;-75
2022/03/08 05:47:10;;;;;;;14.63;9.40;;;-0.50;92.60;;;;;;2614654;54;20679;-76
2022/03/08 05:49:36;;;;;;;12.93;9.80;;;-0.50;93.50;;;;;;2617226;54;20404;-76
2022/03/08 05:52:25;;;;;;;21.57;10.90;;;-0.50;93.70;;;;;;2615099;54;20934;-75
2022/03/08 05:54:51;;;;;;;18.30;10.40;;;-0.50;94.30;;;;;;2616660;47;20423;-75
2022/03/08 05:57:17;;;;;;;15.33;8.93;;;-0.40;94.30;;;;;;2613215;54;20498;-76
2022/03/08 05:59:44;;;;;;;15.30;10.03;;;-0.50;93.60;;;;;;2616267;54;20199;-77
2022/03/08 06:02:13;;;;;;;11.30;9.17;;;-0.50;94.40;;;;;;2612159;54;20155;-75
2022/03/08 06:04:39;;;;;;;18.30;9.30;;;-0.60;95.30;;;;;;2616741;54;20570;-75
2022/03/08 06:07:04;;;;;;;18.30;10.43;;;-0.50;95.30;;;;;;2613981;54;20438;-77
2022/03/08 06:09:30;;;;;;;15.13;9.80;;;-0.50;95.30;;;;;;2616628;54;20170;-76
2022/03/08 06:11:56;;;;;;;16.70;11.00;;;-0.50;95.80;;;;;;2612524;47;20307;-75
2022/03/08 06:14:22;;;;;;;12.87;10.60;;;-0.40;96.10;;;;;;2614973;47;20211;-76
2022/03/08 06:16:49;;;;;;;16.43;9.27;;;-0.50;96.80;;;;;;2613847;47;20247;-76
2022/03/08 06:19:15;;;;;;;13.63;9.40;;;-0.50;99.10;;;;;;2615201;39;20610;-76
2022/03/08 06:21:40;;;;;;;17.93;11.40;;;-0.50;99.20;;;;;;2613302;54;20489;-78
2022/03/08 06:24:06;;;;;;;13.67;9.37;;;-0.40;98.90;;;;;;2613301;54;20196;-79
2022/03/08 06:26:32;;;;;;;13.70;9.57;;;-0.30;98.10;;;;;;2613584;54;20773;-78
2022/03/08 06:28:59;;;;;;;15.30;10.20;;;-0.30;98.20;;;;;;2614641;54;20391;-78
2022/03/08 06:31:24;;;;;;;17.80;10.10;;;-0.20;97.30;;;;;;2613847;54;20174;-78
2022/03/08 06:33:50;;;;;;;13.93;9.30;;;;;;;;;;2612950;54;20483;-77
2022/03/08 06:36:17;;;;;;;15.87;9.67;;;;;;;;;;2617079;47;20170;-78
2022/03/08 06:38:42;;;;;;;13.40;9.70;;;0.00;94.60;;;;;;2616932;39;20791;-77
2022/03/08 06:41:08;;;;;;;16.80;10.30;;;0.00;94.50;;;;;;2615544;54;20378;-78
2022/03/08 06:43:34;;;;;;;16.00;10.80;;;0.10;94.00;;;;;;2614555;54;20682;-79
2022/03/08 06:46:00;;;;;;;17.53;11.77;;;0.10;94.20;;;;;;2615340;51;20461;-79
2022/03/08 06:48:34;;;;;;;15.43;10.83;;;0.10;93.50;;;;;;2615389;47;20215;-78
2022/03/08 06:51:00;;;;;;;16.50;11.03;;;0.40;90.10;;;;;;2618427;47;20403;-77
2022/03/08 06:53:26;;;;;;;24.20;11.67;;;0.40;90.30;;;;;;2618327;46;20498;-78
2022/03/08 06:55:52;;;;;;;16.60;9.90;;;0.90;77.00;;;;;;2618348;46;20422;-79
2022/03/08 06:58:18;;;;;;;16.27;11.63;;;1.00;72.30;;;;;;2617589;47;20414;-78
2022/03/08 07:00:44;;;;;;;18.30;9.40;;;1.30;63.10;;;;;;2617283;54;20155;-78
2022/03/08 07:03:10;;;;;;;19.90;12.23;;;1.40;57.50;;;;;;2614127;54;20439;-77
2022/03/08 07:05:38;;;;;;;15.13;10.37;;;2.10;47.30;;;;;;2617382;47;20471;-78
2022/03/08 07:08:05;;;;;;;14.60;8.60;;;2.40;45.80;;;;;;2619102;46;20395;-84
2022/03/08 07:10:32;;;;;;;15.43;10.37;;;2.60;39.10;;;;;;2619343;39;21240;-84
2022/03/08 07:13:05;;;;;;;13.40;10.70;;;;;;;;;;2619823;54;20367;-83
2022/03/08 07:15:58;;;;;;;12.00;10.33;;;;;;;;;;2619360;47;20423;-85
2022/03/08 07:18:28;;;;;;;11.13;9.83;;;;;;;;;;2614920;46;20554;-84
2022/03/08 07:20:56;;;;;;;11.33;9.90;;;;;;;;;;2616050;47;21412;-85
2022/03/08 07:23:23;;;;;;;18.83;10.20;;;;;;;;;;2615802;47;20432;-83
2022/03/08 07:26:04;;;;;;;11.70;9.90;;;6.20;6.80;;;;;;2618143;47;20412;-83
2022/03/08 07:28:56;;;;;;;11.40;9.60;;;6.80;3.70;;;;;;2619166;47;20396;-84
2022/03/08 07:31:26;;;;;;;12.10;10.73;;;7.20;1.00;;;;;;2617823;46;20424;-83
2022/03/08 07:34:10;;;;;;;13.67;9.90;;;;;;;;;;2697948;36;20475;-83
2022/03/08 07:36:39;;;;;;;12.50;9.50;;;;;;;;;;2633518;36;20471;-81
2022/03/08 07:39:08;;;;;;;17.03;10.03;;;;;;;;;;2614190;54;20441;-84
2022/03/08 07:42:03;;;;;;;13.20;9.90;;;;;;;;;;2612503;47;22772;-81
2022/03/08 07:44:31;;;;;;;13.63;9.93;;;;;;;;;;2620051;39;20907;-82
2022/03/08 07:47:02;;;;;;;11.80;9.43;;;;;;;;;;2628744;54;20405;-82
2022/03/08 07:49:43;;;;;;;11.30;9.07;;;;;;;;;;2628670;54;20478;-82
2022/03/08 07:52:09;;;;;;;11.53;10.53;;;;;;;;;;2616246;46;20460;-82
2022/03/08 07:54:36;;;;;;;10.87;9.77;;;;;;;;;;2627015;47;20497;-82
2022/03/08 07:57:02;;;;;;;11.60;9.13;;;;;;;;;;2621508;47;20418;-83
2022/03/08 07:59:29;;;;;;;14.50;8.07;;;;;;;;;;2616462;54;20393;-82
2022/03/08 08:02:18;;;;;;;12.60;10.67;;;7.90;1.00;;;;;;2613888;47;20425;-82
2022/03/08 08:04:44;;;;;;;9.73;8.10;;;;;;;;;;2617504;54;20402;-81
2022/03/08 08:07:11;;;;;;;10.00;9.00;;;8.80;1.00;;;;;;2616905;54;20455;-81
2022/03/08 08:09:37;;;;;;;12.10;9.13;;;8.10;1.00;;;;;;2617398;54;20468;-80
2022/03/08 08:12:03;;;;;;;12.50;11.00;;;8.20;1.00;;;;;;2617069;46;20160;-81
2022/03/08 08:14:30;;;;;;;14.20;9.43;;;;;;;;;;2616712;46;20418;-81
2022/03/08 08:16:55;;;;;;;12.20;9.53;;;9.50;7.50;;;;;;2616731;46;20480;-82
2022/03/08 08:19:22;;;;;;;10.53;9.60;;;;;;;;;;2616263;39;20868;-83
2022/03/08 08:21:48;;;;;;;10.00;9.10;;;10.00;1.00;;;;;;2612044;46;21027;-81
2022/03/08 08:24:41;;;;;;;13.80;12.50;;;9.90;1.00;;;;;;2613297;54;20421;-82
2022/03/08 08:27:08;;;;;;;11.40;9.57;;;;;;;;;;2616451;47;20188;-82
2022/03/08 08:29:34;;;;;;;10.90;9.80;;;;;;;;;;2615982;54;20423;-81
2022/03/08 08:32:00;;;;;;;12.43;9.70;;;10.30;1.00;;;;;;2616604;46;20499;-83
2022/03/08 08:34:26;;;;;;;11.63;10.20;;;10.30;1.00;;;;;;2617109;54;20441;-82
2022/03/08 08:36:54;;;;;;;10.77;9.80;;;10.70;1.00;;;;;;2616254;54;20412;-82
2022/03/08 08:39:20;;;;;;;12.83;10.17;;;10.60;1.00;;;;;;2616860;54;20412;-81
2022/03/08 08:41:47;;;;;;;11.87;10.33;;;;;;;;;;2615003;47;21055;-83
2022/03/08 08:44:15;;;;;;;10.33;9.50;;;;;;;;;;2613977;47;20592;-82
2022/03/08 08:46:41;;;;;;;11.63;10.13;;;;;;;;;;2615936;47;20455;-82
2022/03/08 08:49:08;;;;;;;9.83;8.77;;;11.10;1.00;;;;;;2617974;39;21042;-82
2022/03/08 08:52:04;;;;;;;9.53;8.57;;;10.40;1.00;;;;;;2617925;46;20411;-82
2022/03/08 08:54:30;;;;;;;8.77;7.90;;;10.60;1.00;;;;;;2616897;54;20406;-81
2022/03/08 08:56:57;;;;;;;9.60;8.70;;;10.90;1.00;;;;;;2616037;47;20414;-82
2022/03/08 08:59:58;;;;;;;12.03;10.93;;;10.80;1.00;;;;;;2616428;54;20411;-81
2022/03/08 09:02:25;;;;;;;12.00;8.43;;;10.90;1.00;;;;;;2616687;47;20384;-81
2022/03/08 09:04:52;;;;;;;9.83;9.07;;;10.80;1.00;;;;;;2615691;54;20427;-82
2022/03/08 09:07:18;;;;;;;9.97;9.17;;;11.10;1.00;;;;;;2616760;47;20471;-83
2022/03/08 09:09:47;;;;;;;9.80;9.00;;;11.00;1.00;;;;;;2617837;47;20416;-83
2022/03/08 09:12:41;;;;;;;9.27;8.47;;;11.00;1.00;;;;;;2617623;54;20154;-82
2022/03/08 09:15:09;;;;;;;11.37;9.90;;;11.30;1.00;;;;;;2616747;47;20453;-82
2022/03/08 09:17:39;;;;;;;9.20;7.60;;;12.20;1.00;;;;;;2617007;47;20407;-82
2022/03/08 09:20:08;;;;;;;8.07;7.17;;;11.60;1.00;;;;;;2615237;54;20395;-82
2022/03/08 09:22:59;;;;;;;9.50;8.60;;;11.60;1.00;;;;;;2618580;47;21786;-83
2022/03/08 09:25:27;;;;;;;10.90;8.77;;;11.20;1.00;;;;;;2614354;47;20430;-81
2022/03/08 09:27:54;;;;;;;9.37;8.57;;;11.10;1.00;;;;;;2619117;47;20395;-80
2022/03/08 09:30:21;;;;;;;9.70;8.80;;;10.80;1.00;;;;;;2618168;54;20514;-82
2022/03/08 09:32:52;;;;;;;9.87;8.83;;;10.80;1.00;;;;;;2618361;47;20416;-82
2022/03/08 09:35:18;;;;;;;9.63;8.67;;;11.10;1.00;;;;;;2617296;47;20430;-81
2022/03/08 09:37:46;;;;;;;9.93;9.17;;;;;;;;;;2623601;47;20439;-82
2022/03/08 09:40:12;;;;;;;9.40;8.70;;;11.10;1.00;;;;;;2623998;54;20425;-82
2022/03/08 09:42:41;;;;;;;10.10;9.10;;;11.10;1.00;;;;;;2620037;47;20400;-82
2022/03/08 09:45:08;;;;;;;10.60;9.60;;;11.10;1.00;;;;;;2624412;47;20483;-83
2022/03/08 09:47:34;;;;;;;10.27;9.40;;;11.10;1.00;;;;;;2619963;47;20435;-84
2022/03/08 09:50:26;;;;;;;10.07;9.07;;;11.30;1.00;;;;;;2619944;47;20418;-81
2022/03/08 09:53:24;;;;;;;8.00;7.30;;;11.40;1.00;;;;;;2621917;39;20910;-83
2022/03/08 09:55:50;;;;;;;8.77;8.07;;;10.80;1.00;;;;;;2623433;47;20509;-82
2022/03/08 09:58:20;;;;;;;9.80;9.10;;;10.80;1.00;;;;;;2619056;54;20438;-82
2022/03/08 10:00:47;;;;;;;11.33;9.83;;;;;;;;;;2618093;47;20166;-84
2022/03/08 10:03:14;;;;;;;9.70;8.50;;;;;;;;;;2616442;46;20454;-84
2022/03/08 10:05:40;;;;;;;10.67;9.77;;;;;;;;;;2617872;54;20430;-84
2022/03/08 10:08:11;;;;;;;8.00;7.37;;;11.20;1.00;;;;;;2616333;47;20418;-83
2022/03/08 10:10:48;;;;;;;8.30;7.60;;;;;;;;;;2617282;39;20897;-83
2022/03/08 10:13:14;;;;;;;10.03;9.23;;;11.10;1.00;;;;;;2619599;39;20807;-83
2022/03/08 10:15:41;;;;;;;9.77;9.00;;;11.20;1.00;;;;;;2616969;54;20550;-83
2022/03/08 10:18:07;;;;;;;10.07;9.27;;;11.30;1.00;;;;;;2615228;46;20452;-83
2022/03/08 10:21:00;;;;;;;9.00;8.40;;;11.70;1.00;;;;;;2614001;54;20416;-83
2022/03/08 10:23:26;;;;;;;11.97;9.90;;;11.50;1.00;;;;;;2616602;51;21270;-81
2022/03/08 10:25:52;;;;;;;9.37;8.40;;;11.30;1.00;;;;;;2616726;46;20514;-82
2022/03/08 10:28:17;;;;;;;15.13;9.03;;;11.80;1.00;;;;;;2616303;47;20453;-83
2022/03/08 10:30:44;;;;;;;8.97;8.07;;;11.40;1.00;;;;;;2617673;47;20439;-82
2022/03/08 10:33:12;;;;;;;10.00;9.07;;;11.40;1.00;;;;;;2620403;54;20602;-82
2022/03/08 10:35:41;;;;;;;8.43;7.47;;;11.70;1.00;;;;;;2618687;51;20162;-83
2022/03/08 10:38:11;;;;;;;9.40;8.07;;;11.60;1.00;;;;;;2620616;39;20955;-81
2022/03/08 10:40:40;;;;;;;9.03;8.13;;;11.60;1.00;;;;;;2620206;47;20458;-83
2022/03/08 10:43:13;;;;;;;8.33;7.63;;;11.70;1.00;;;;;;2616602;47;20408;-83
2022/03/08 10:46:15;;;;;;;9.10;8.20;;;11.60;1.00;;;;;;2618481;39;20792;-81
2022/03/08 10:48:41;;;;;;;11.20;8.50;;;11.50;1.00;;;;;;2618170;47;20493;-84
2022/03/08 10:51:15;;;;;;;9.77;8.87;;;11.60;1.00;;;;;;2618386;47;20418;-83
2022/03/08 10:53:44;;;;;;;9.90;8.93;;;11.80;1.00;;;;;;2618883;54;20422;-83
2022/03/08 10:56:12;;;;;;;9.80;8.80;;;12.40;1.00;;;;;;2622221;47;20442;-83
2022/03/08 10:58:49;;;;;;;9.70;8.90;;;12.40;1.00;;;;;;2617241;47;21036;-80
2022/03/08 11:01:16;;;;;;;8.27;7.57;;;;;;;;;;2618574;54;20403;-80
2022/03/08 11:03:56;;;;;;;9.17;8.37;;;11.80;1.00;;;;;;2616603;54;20419;-82
2022/03/08 11:06:23;;;;;;;11.33;10.37;;;11.90;1.00;;;;;;2617476;39;20966;-79
2022/03/08 11:08:49;;;;;;;10.30;9.60;;;12.50;1.00;;;;;;2624849;54;20396;-83
2022/03/08 11:11:18;;;;;;;9.10;8.37;;;12.60;1.00;;;;;;2620530;46;20423;-81
2022/03/08 11:13:47;;;;;;;10.20;9.40;;;;;;;;;;2620645;46;20480;-83
2022/03/08 11:16:15;;;;;;;9.10;8.40;;;13.00;1.00;;;;;;2618662;54;20426;-81
2022/03/08 11:19:08;;;;;;;9.60;8.80;;;13.10;1.00;;;;;;2616033;54;20403;-81
2022/03/08 11:21:36;;;;;;;10.80;9.90;;;13.50;1.00;;;;;;2618128;46;20518;-82
2022/03/08 11:24:04;;;;;;;12.07;10.87;;;13.50;1.00;;;;;;2618962;54;20400;-82
2022/03/08 11:26:34;;;;;;;8.93;8.23;;;13.30;1.00;;;;;;2619227;47;20444;-81
2022/03/08 11:29:04;;;;;;;10.37;9.63;;;;;;;;;;2619245;54;20400;-83
2022/03/08 11:31:58;;;;;;;10.33;9.50;;;13.50;1.00;;;;;;2620834;31;20833;-79
2022/03/08 11:34:33;;;;;;;10.13;9.33;;;13.30;1.00;;;;;;2614696;39;20826;-80
2022/03/08 11:37:16;;;;;;;9.23;8.33;;;13.40;1.00;;;;;;2616091;47;20445;-81
2022/03/08 11:39:43;;;;;;;10.00;9.20;;;13.50;1.00;;;;;;2616165;54;20931;-81
2022/03/08 11:42:26;;;;;;;10.53;9.67;;;13.00;1.00;;;;;;2617131;46;20419;-81
2022/03/08 11:45:02;;;;;;;10.83;9.93;;;13.00;1.00;;;;;;2616455;46;20503;-80
2022/03/08 11:48:01;;;;;;;14.40;9.30;;;13.20;1.00;;;;;;2618277;31;20906;-81
2022/03/08 11:50:54;;;;;;;9.20;8.57;;;12.90;1.00;;;;;;2616886;39;20811;-81
2022/03/08 11:53:25;;;;;;;9.77;9.07;;;12.80;1.00;;;;;;2615275;47;20468;-80
2022/03/08 11:55:55;;;;;;;10.67;9.57;;;12.70;1.00;;;;;;2614218;47;20426;-79
2022/03/08 11:58:45;;;;;;;8.53;7.83;;;12.80;1.00;;;;;;2613584;54;20519;-81
2022/03/08 12:01:26;;;;;;;10.50;9.73;;;13.00;1.00;;;;;;2613760;54;20411;-80
2022/03/08 12:03:57;;;;;;;9.23;8.60;;;13.50;1.00;;;;;;2616142;31;21044;-80
2022/03/08 12:06:35;;;;;;;9.13;8.60;;;14.10;1.00;;;;;;2615810;47;20443;-80
2022/03/08 12:09:12;;;;;;;10.83;10.03;;;14.30;1.00;;;;;;2614344;51;20518;-79
2022/03/08 12:11:42;;;;;;;9.80;9.13;;;14.00;1.00;;;;;;2613608;54;20410;-80
2022/03/08 12:14:17;;;;;;;10.43;9.57;;;14.60;1.00;;;;;;2616793;39;20796;-80
2022/03/08 12:16:46;;;;;;;11.03;9.97;;;14.60;1.00;;;;;;2613654;54;20406;-80
2022/03/08 12:19:29;;;;;;;9.97;9.27;;;15.00;1.00;;;;;;2613010;54;20420;-80
2022/03/08 12:21:56;;;;;;;11.77;10.67;;;15.20;1.00;;;;;;2612181;47;21007;-79
2022/03/08 12:24:24;;;;;;;9.37;8.53;;;15.40;1.00;;;;;;2615126;47;20511;-80
2022/03/08 12:27:04;;;;;;;11.13;9.77;;;15.50;1.00;;;;;;2614895;54;20427;-79
2022/03/08 12:29:50;;;;;;;10.60;9.70;;;15.10;1.00;;;;;;2613613;47;20431;-78
2022/03/08 12:32:42;;;;;;;9.20;8.50;;;15.30;1.00;;;;;;2615474;46;20446;-79
2022/03/08 12:35:19;;;;;;;9.50;8.87;;;15.00;1.00;;;;;;2617560;39;20811;-78
2022/03/08 12:37:58;;;;;;;9.30;8.70;;;14.80;1.00;;;;;;2614330;39;21007;-78
2022/03/08 12:40:37;;;;;;;10.57;9.60;;;14.60;1.00;;;;;;2614203;54;20404;-77
2022/03/08 12:43:10;;;;;;;10.40;9.60;;;14.50;1.00;;;;;;2613415;54;20411;-78
2022/03/08 12:45:41;;;;;;;10.67;9.90;;;14.50;1.00;;;;;;2616721;46;20439;-78
2022/03/08 12:48:09;;;;;;;8.67;8.07;;;15.20;1.00;;;;;;2615161;47;20416;-77
2022/03/08 12:50:49;;;;;;;9.50;8.80;;;16.00;1.00;;;;;;2612141;39;20933;-78
2022/03/08 12:53:27;;;;;;;9.43;8.73;;;15.50;1.00;;;;;;2614231;47;20451;-77
2022/03/08 12:56:01;;;;;;;10.03;9.33;;;15.00;1.00;;;;;;2614059;54;20403;-78
2022/03/08 12:58:33;;;;;;;7.93;7.43;;;15.60;1.00;;;;;;2615777;46;21488;-77
2022/03/08 13:01:02;;;;;;;9.40;8.63;;;15.30;1.00;;;;;;2616361;39;20797;-78
2022/03/08 13:03:36;;;;;;;9.30;8.40;;;15.00;1.00;;;;;;2614134;31;20817;-78
2022/03/08 13:06:08;;;;;;;8.10;7.70;;;15.30;1.00;;;;;;2614839;47;21103;-77
2022/03/08 13:08:39;;;;;;;9.10;8.50;;;15.00;1.00;;;;;;2616637;47;20416;-78
2022/03/08 13:11:09;;;;;;;7.57;7.00;;;15.00;1.00;;;;;;2616701;47;20518;-79
2022/03/08 13:13:43;;;;;;;7.97;7.37;;;14.70;1.00;;;;;;2616738;54;20451;-78